Vista del Lago, Puerto Rico
Current Conditions -  °F | °C
As of 1:56 AM on Sunday 23 Nov 2014 (Local Time) from TJSJ Reporting Station
Light Rain Light Rain  
Wind Chill: 78°   Ceiling: Unl
Heat Index: 81°   Visibility: 9mi
Dew Point: 76°   Wind: 5mph
Humidity: 93%   Direction: 60°ENE
Pressure: 29.99"   Gusts: NA
Location:  18.4519°N, 66.1817°W
Report Text: TJSJ 230556Z 06004KT 9SM -RA FEW027 SCT049 SCT070 26/24 A2999 RMK AO2 RAB53 SLP154 P0000 60004 T02560244 10272 20250 58010 $
Loading
Personal Weather Stations






























Interactive Weather Map New forecast layout! Learn more

10-Day Weather Forecast

Advertisements
Track Severe Weather on mobile